Time;durP1;ratioP1;P1;durP2;ratioP2;P2;SDS_P1;SDS_P2;PMS_P1;PMS_P2;Temp;Humidity;BMP_temperature;BMP_pressure;BME280_temperature;BME280_humidity;BME280_pressure;Samples;Min_cycle;Max_cycle;Signal;HPM_P1;HPM_P2
2024/03/26 00:00:36;;;;;;;;;;;2.10;99.90;;;;;;5090495;28;20068;-73
2024/03/26 00:03:01;;;;;;;6.85;2.95;;;2.10;99.90;;;;;;5090221;28;19904;-73
2024/03/26 00:05:27;;;;;;;;;;;2.00;99.90;;;;;;5090552;28;20766;-74
2024/03/26 00:07:53;;;;;;;8.65;3.80;;;2.00;99.90;;;;;;5088582;28;20347;-74
2024/03/26 00:10:18;;;;;;;;;;;2.00;99.90;;;;;;5088974;28;20047;-74
2024/03/26 00:12:44;;;;;;;11.93;3.83;;;2.00;99.90;;;;;;5084461;28;19915;-73
2024/03/26 00:15:10;;;;;;;;;;;2.00;99.90;;;;;;5090212;28;20027;-73
2024/03/26 00:17:35;;;;;;;10.70;3.97;;;2.00;99.90;;;;;;5088549;28;19908;-74
2024/03/26 00:20:01;;;;;;;;;;;2.00;99.90;;;;;;5088554;28;20028;-71
2024/03/26 00:22:26;;;;;;;6.78;2.40;;;1.90;99.90;;;;;;5089929;28;19914;-72
2024/03/26 00:24:52;;;;;;;;;;;2.00;99.90;;;;;;5090070;28;20087;-72
2024/03/26 00:27:17;;;;;;;4.85;2.10;;;2.00;99.90;;;;;;5088271;28;19907;-73
2024/03/26 00:29:43;;;;;;;;;;;2.00;99.90;;;;;;5090016;28;20417;-72
2024/03/26 00:32:08;;;;;;;4.70;2.30;;;2.00;99.90;;;;;;5089665;28;20296;-72
2024/03/26 00:34:34;;;;;;;;;;;2.00;99.90;;;;;;5089663;28;20392;-73
2024/03/26 00:37:00;;;;;;;4.88;1.80;;;2.00;99.90;;;;;;5089700;28;19919;-72
2024/03/26 00:39:25;;;;;;;;;;;2.00;99.90;;;;;;5088212;28;20044;-72
2024/03/26 00:41:51;;;;;;;5.43;2.33;;;2.00;99.90;;;;;;5089561;28;20292;-72
2024/03/26 00:44:17;;;;;;;;;;;1.90;99.90;;;;;;5088651;28;20035;-73
2024/03/26 00:46:42;;;;;;;3.20;1.60;;;1.90;99.90;;;;;;5085179;28;19915;-71
2024/03/26 00:49:08;;;;;;;;;;;1.90;99.90;;;;;;5088829;28;20028;-73
2024/03/26 00:51:34;;;;;;;3.85;1.67;;;1.90;99.90;;;;;;5087879;28;19912;-72
2024/03/26 00:54:00;;;;;;;3.65;1.50;;;1.80;99.90;;;;;;5089387;28;20754;-73
2024/03/26 00:56:25;;;;;;;;;;;1.90;99.90;;;;;;5088714;28;20045;-72
2024/03/26 00:58:51;;;;;;;3.83;1.35;;;1.80;99.90;;;;;;5087838;28;19927;-73
2024/03/26 01:01:16;;;;;;;;;;;1.80;99.90;;;;;;5092475;28;20078;-72
2024/03/26 01:03:42;;;;;;;5.20;1.98;;;1.70;99.90;;;;;;5093371;28;20677;-71
2024/03/26 01:06:07;;;;;;;;;;;1.70;99.90;;;;;;5093837;28;20393;-72
2024/03/26 01:08:33;;;;;;;5.18;1.90;;;1.70;99.90;;;;;;5091917;28;20368;-72
2024/03/26 01:10:59;;;;;;;;;;;1.70;99.90;;;;;;5092321;28;20403;-72
2024/03/26 01:13:24;;;;;;;24.20;10.27;;;1.70;99.90;;;;;;5087870;28;20371;-73
2024/03/26 01:15:51;;;;;;;;;;;1.60;99.90;;;;;;5092252;28;20112;-72
2024/03/26 01:18:17;;;;;;;14.40;4.68;;;1.60;99.90;;;;;;5094874;28;19908;-72
2024/03/26 01:20:43;;;;;;;;;;;1.60;99.90;;;;;;5097783;28;20046;-72
2024/03/26 01:23:08;;;;;;;8.57;2.35;;;1.60;99.90;;;;;;5099332;28;19915;-72
2024/03/26 01:25:35;;;;;;;;;;;1.50;99.90;;;;;;5099202;28;20396;-72
2024/03/26 01:28:02;;;;;;;5.03;1.60;;;1.50;99.90;;;;;;5101295;28;19912;-72
2024/03/26 01:30:28;;;;;;;2.97;1.33;;;1.50;99.90;;;;;;5102811;28;20024;-71
2024/03/26 01:32:53;;;;;;;;;;;1.50;99.90;;;;;;5103161;28;20083;-70
2024/03/26 01:35:19;;;;;;;1.20;0.60;;;1.60;99.90;;;;;;5098264;28;19915;-71
2024/03/26 01:37:46;;;;;;;;;;;1.70;99.90;;;;;;5093476;28;20024;-71
2024/03/26 01:40:12;;;;;;;1.55;0.50;;;1.80;99.90;;;;;;5073000;28;19916;-71
2024/03/26 01:42:41;;;;;;;;;;;2.00;99.90;;;;;;5055066;28;20035;-72
2024/03/26 01:45:07;;;;;;;1.05;0.40;;;2.10;99.90;;;;;;5072472;28;19911;-70
2024/03/26 01:47:36;;;;;;;1.75;0.80;;;2.20;99.90;;;;;;5072642;28;20134;-71
2024/03/26 01:50:04;;;;;;;2.00;0.80;;;2.30;99.90;;;;;;5054348;28;20028;-72
2024/03/26 01:52:31;;;;;;;4.57;0.90;;;2.30;99.90;;;;;;5072252;28;20511;-70
2024/03/26 01:54:57;;;;;;;3.58;0.80;;;2.40;99.90;;;;;;5054381;28;20068;-71
2024/03/26 01:57:23;;;;;;;;;;;2.50;99.90;;;;;;5054464;28;20028;-72
2024/03/26 01:59:53;;;;;;;1.85;0.63;;;2.60;99.90;;;;;;5071979;28;19913;-73
2024/03/26 02:02:22;;;;;;;2.05;0.93;;;2.60;99.90;;;;;;5054139;28;20021;-72
2024/03/26 02:04:48;;;;;;;3.35;1.05;;;2.60;99.90;;;;;;5071946;28;20024;-71
2024/03/26 02:07:18;;;;;;;3.33;1.00;;;2.60;99.90;;;;;;5054265;28;20524;-73
2024/03/26 02:09:46;;;;;;;1.95;0.90;;;2.60;99.90;;;;;;5053907;28;20039;-72
2024/03/26 02:12:11;;;;;;;1.85;0.73;;;2.60;99.90;;;;;;5071460;28;20137;-73
2024/03/26 02:14:37;;;;;;;;;;;2.60;99.90;;;;;;5050301;28;20607;-71
2024/03/26 02:17:04;;;;;;;2.05;0.80;;;2.60;99.90;;;;;;5071216;28;19912;-72
2024/03/26 02:19:30;;;;;;;1.63;0.50;;;2.70;99.90;;;;;;5072242;28;20116;-73
2024/03/26 02:21:55;;;;;;;2.85;0.60;;;2.60;99.90;;;;;;5054308;28;20158;-73
2024/03/26 02:24:21;;;;;;;;;;;2.60;99.90;;;;;;5072909;28;20460;-72
2024/03/26 02:26:47;;;;;;;2.58;0.82;;;2.60;99.90;;;;;;5054478;28;19915;-72
2024/03/26 02:29:12;;;;;;;;;;;2.40;99.90;;;;;;5054874;28;20493;-72
2024/03/26 02:31:38;;;;;;;2.45;1.08;;;2.30;99.90;;;;;;5072794;28;19912;-73
2024/03/26 02:34:03;;;;;;;;;;;2.20;99.90;;;;;;5054621;28;20132;-71
2024/03/26 02:36:29;;;;;;;2.42;0.80;;;2.10;99.90;;;;;;5079111;28;19986;-71
2024/03/26 02:38:55;;;;;;;;;;;2.00;99.90;;;;;;5077225;28;20105;-72
2024/03/26 02:41:20;;;;;;;2.90;1.35;;;1.90;99.90;;;;;;5091923;28;20612;-72
2024/03/26 02:43:47;;;;;;;;;;;1.80;99.90;;;;;;5090860;28;20024;-72
2024/03/26 02:46:12;;;;;;;2.75;1.02;;;1.70;99.90;;;;;;5091627;28;19943;-71
2024/03/26 02:48:38;;;;;;;;;;;1.70;99.90;;;;;;5090530;28;20060;-73
2024/03/26 02:51:04;;;;;;;4.85;0.95;;;1.60;99.90;;;;;;5090455;28;19908;-72
2024/03/26 02:53:29;;;;;;;;;;;1.60;99.90;;;;;;5091814;28;20568;-72
2024/03/26 02:55:55;;;;;;;4.03;1.65;;;1.50;99.90;;;;;;5091307;28;19961;-72
2024/03/26 02:58:20;;;;;;;;;;;1.50;99.90;;;;;;5090221;28;20032;-72
2024/03/26 03:00:46;;;;;;;5.28;2.67;;;1.50;99.90;;;;;;5089765;28;19995;-71
2024/03/26 03:03:12;;;;;;;;;;;1.40;99.90;;;;;;5090313;28;20070;-72
2024/03/26 03:05:39;;;;;;;4.78;2.33;;;1.40;99.90;;;;;;5089720;28;19911;-72
2024/03/26 03:08:05;;;;;;;3.85;1.92;;;1.40;99.90;;;;;;5089822;28;20032;-73
2024/03/26 03:10:32;;;;;;;;;;;1.40;99.90;;;;;;5090161;28;20398;-70
2024/03/26 03:12:58;;;;;;;3.53;1.35;;;1.40;99.90;;;;;;5090026;28;19908;-72
2024/03/26 03:15:24;;;;;;;;;;;1.40;99.90;;;;;;5091435;28;20118;-71
2024/03/26 03:17:49;;;;;;;3.45;1.20;;;1.30;99.90;;;;;;5089768;28;19908;-73
2024/03/26 03:20:15;;;;;;;;;;;1.20;99.90;;;;;;5091096;28;20040;-72
2024/03/26 03:22:44;;;;;;;2.28;1.08;;;1.20;99.90;;;;;;5090046;28;19999;-72
2024/03/26 03:25:10;;;;;;;4.90;1.38;;;1.20;99.90;;;;;;5084103;28;20039;-72
2024/03/26 03:27:35;;;;;;;;;;;1.20;99.90;;;;;;5089725;28;20397;-72
2024/03/26 03:30:01;;;;;;;4.03;1.98;;;1.10;99.90;;;;;;5090492;28;19932;-72
2024/03/26 03:32:27;;;;;;;;;;;1.10;99.90;;;;;;5089610;28;20062;-72
2024/03/26 03:34:53;;;;;;;19.80;9.10;;;1.10;99.90;;;;;;5090477;28;19947;-72
2024/03/26 03:37:18;;;;;;;34.20;15.38;;;1.10;99.90;;;;;;5089203;28;20024;-72
2024/03/26 03:39:44;;;;;;;;;;;1.10;99.90;;;;;;5089399;28;20051;-72
2024/03/26 03:42:10;;;;;;;57.10;24.90;;;1.20;99.90;;;;;;5090119;28;19907;-70
2024/03/26 03:44:35;;;;;;;;;;;1.20;99.90;;;;;;5091148;28;20034;-72
2024/03/26 03:47:05;;;;;;;11.15;5.18;;;1.30;99.90;;;;;;5090624;28;19914;-73
2024/03/26 03:49:31;;;;;;;5.78;2.28;;;1.40;99.90;;;;;;5090994;28;20050;-71
2024/03/26 03:51:57;;;;;;;4.72;1.55;;;1.50;99.90;;;;;;5089891;28;20059;-72
2024/03/26 03:54:23;;;;;;;;;;;1.60;99.90;;;;;;5089256;28;20081;-72
2024/03/26 03:56:49;;;;;;;1.85;0.82;;;1.70;99.90;;;;;;5090213;28;19912;-71
2024/03/26 03:59:15;;;;;;;;;;;1.80;99.90;;;;;;5090488;28;20032;-72
2024/03/26 04:01:40;;;;;;;2.03;0.80;;;1.90;99.90;;;;;;5089933;28;20368;-72
2024/03/26 04:04:06;;;;;;;;;;;2.00;99.90;;;;;;5088976;28;20446;-73
2024/03/26 04:06:33;;;;;;;2.92;0.95;;;2.00;99.90;;;;;;5090082;28;19908;-72
2024/03/26 04:08:58;;;;;;;4.07;1.55;;;2.00;99.90;;;;;;5088520;28;20024;-72
2024/03/26 04:11:24;;;;;;;;;;;2.20;99.90;;;;;;5088967;28;20051;-72
2024/03/26 04:13:50;;;;;;;2.03;0.98;;;2.30;99.90;;;;;;5088876;28;19991;-71
2024/03/26 04:16:15;;;;;;;;;;;2.50;99.90;;;;;;5089002;28;20107;-71
2024/03/26 04:18:41;;;;;;;3.40;0.93;;;2.60;99.90;;;;;;5088434;28;19915;-74
2024/03/26 04:21:06;;;;;;;;;;;2.70;99.90;;;;;;5090278;28;20661;-72
2024/03/26 04:23:33;;;;;;;3.63;1.30;;;2.80;99.90;;;;;;5089734;28;19927;-72
2024/03/26 04:25:58;;;;;;;2.45;0.88;;;2.90;99.90;;;;;;5089498;28;20024;-74
2024/03/26 04:28:26;;;;;;;;;;;3.00;99.90;;;;;;5088804;28;20085;-73
2024/03/26 04:30:52;;;;;;;1.50;0.70;;;3.10;99.90;;;;;;5088296;28;19904;-75
2024/03/26 04:33:18;;;;;;;1.63;0.70;;;3.10;99.90;;;;;;5088299;28;20032;-72
2024/03/26 04:35:47;;;;;;;;;;;3.20;99.90;;;;;;5088499;28;20017;-72
2024/03/26 04:38:13;;;;;;;4.53;0.90;;;3.20;99.90;;;;;;5085192;28;19924;-73
2024/03/26 04:40:39;;;;;;;;;;;3.10;99.90;;;;;;5051666;28;20055;-73
2024/03/26 04:43:09;;;;;;;5.80;1.03;;;3.20;99.90;;;;;;5051727;28;19970;-75
2024/03/26 04:45:35;;;;;;;2.40;1.17;;;3.20;99.90;;;;;;5046397;28;20066;-73
2024/03/26 04:48:01;;;;;;;2.17;0.90;;;3.30;99.90;;;;;;5069489;28;20040;-73
2024/03/26 04:50:27;;;;;;;4.05;1.10;;;3.40;99.90;;;;;;5054167;28;20033;-74
2024/03/26 04:52:53;;;;;;;;;;;3.50;99.90;;;;;;5058841;28;20493;-74
2024/03/26 04:55:19;;;;;;;2.08;0.70;;;3.50;99.90;;;;;;5072654;28;19911;-73
2024/03/26 04:57:45;;;;;;;3.22;0.95;;;3.60;99.90;;;;;;5073860;28;20040;-74
2024/03/26 05:00:13;;;;;;;5.00;1.15;;;3.60;99.90;;;;;;5059865;28;20131;-74
2024/03/26 05:02:43;;;;;;;3.92;0.90;;;3.50;99.90;;;;;;5058933;28;20020;-73
2024/03/26 05:05:10;;;;;;;5.22;0.98;;;3.60;99.90;;;;;;5070745;28;20037;-73
2024/03/26 05:07:36;;;;;;;3.20;0.90;;;3.90;99.90;;;;;;5070188;28;20024;-72
2024/03/26 05:10:03;;;;;;;4.30;0.70;;;4.10;99.90;;;;;;5051885;28;20035;-73
2024/03/26 05:12:29;;;;;;;2.40;0.80;;;4.20;99.90;;;;;;5051720;28;20442;-71
2024/03/26 05:14:55;;;;;;;;;;;4.40;99.90;;;;;;5070597;28;20028;-72
2024/03/26 05:17:21;;;;;;;2.58;1.20;;;4.30;99.90;;;;;;5051563;28;19915;-74
2024/03/26 05:19:47;;;;;;;1.75;0.80;;;4.40;99.90;;;;;;5069987;28;20042;-74
2024/03/26 05:22:12;;;;;;;;;;;4.40;99.90;;;;;;5070989;28;20107;-73
2024/03/26 05:24:39;;;;;;;5.43;2.10;;;4.40;99.90;;;;;;5078504;28;19908;-73
2024/03/26 05:27:06;;;;;;;3.20;1.17;;;4.40;99.90;;;;;;5077044;28;20017;-72
2024/03/26 05:29:32;;;;;;;2.03;0.95;;;4.50;99.90;;;;;;5051959;28;20503;-74
2024/03/26 05:31:58;;;;;;;3.95;1.25;;;4.70;99.90;;;;;;5051362;28;20028;-72
2024/03/26 05:34:24;;;;;;;4.47;1.00;;;4.90;99.90;;;;;;5051261;28;20477;-72
2024/03/26 05:36:49;;;;;;;;;;;5.30;99.90;;;;;;5069484;28;20082;-74
2024/03/26 05:39:15;;;;;;;3.30;1.10;;;5.70;99.90;;;;;;5068800;28;19921;-74
2024/03/26 05:41:40;;;;;;;;;;;6.60;99.90;;;;;;5051700;28;20032;-74
2024/03/26 05:44:06;;;;;;;4.35;0.90;;;7.70;99.90;;;;;;5050534;28;19924;-74
2024/03/26 05:46:32;;;;;;;;;;;8.60;99.90;;;;;;5070434;28;20412;-73
2024/03/26 05:48:58;;;;;;;1.98;1.17;;;9.50;96.90;;;;;;5054514;28;20471;-73
2024/03/26 05:51:23;;;;;;;;;;;10.20;93.20;;;;;;5054893;28;20071;-72
2024/03/26 05:53:49;;;;;;;1.63;0.73;;;10.70;87.80;;;;;;5072414;28;20422;-73
2024/03/26 05:56:15;;;;;;;;;;;10.90;83.70;;;;;;5054402;28;20089;-72
2024/03/26 05:58:40;;;;;;;2.78;1.27;;;10.80;81.70;;;;;;5072440;28;20419;-73
2024/03/26 06:01:06;;;;;;;;;;;10.80;81.00;;;;;;5073084;28;20033;-72
2024/03/26 06:03:32;;;;;;;1.55;0.77;;;10.80;79.80;;;;;;5054394;28;20673;-73
2024/03/26 06:05:58;;;;;;;;;;;10.70;79.80;;;;;;5054849;28;20024;-72
2024/03/26 06:08:24;;;;;;;2.25;1.00;;;10.70;78.80;;;;;;5054267;28;20000;-73
2024/03/26 06:10:50;;;;;;;;;;;10.60;79.00;;;;;;5072470;28;20033;-72
2024/03/26 06:13:15;;;;;;;2.83;0.90;;;10.40;78.50;;;;;;5053996;28;19908;-71
2024/03/26 06:15:41;;;;;;;;;;;10.30;80.00;;;;;;5072480;28;20052;-74
2024/03/26 06:18:07;;;;;;;2.67;1.30;;;10.20;81.20;;;;;;5072053;28;20400;-74
2024/03/26 06:20:33;;;;;;;2.40;0.85;;;10.30;82.20;;;;;;5071508;28;20071;-73
2024/03/26 06:22:59;;;;;;;;;;;10.60;79.50;;;;;;5054253;28;20025;-74
2024/03/26 06:25:24;;;;;;;4.40;1.02;;;10.70;78.40;;;;;;5053671;28;19904;-73
2024/03/26 06:27:50;;;;;;;;;;;11.00;77.20;;;;;;5071807;28;20016;-72
2024/03/26 06:30:16;;;;;;;2.28;1.20;;;11.10;77.00;;;;;;5053600;28;20567;-72
2024/03/26 06:32:41;;;;;;;;;;;11.30;77.20;;;;;;5071945;28;20394;-73
2024/03/26 06:35:08;;;;;;;5.68;1.60;;;11.50;75.30;;;;;;5071117;28;19908;-73
2024/03/26 06:37:33;;;;;;;1.63;0.88;;;11.70;73.80;;;;;;5071598;28;20431;-72
2024/03/26 06:39:59;;;;;;;;;;;12.10;72.40;;;;;;5071522;28;20513;-75
2024/03/26 06:42:26;;;;;;;6.00;1.45;;;12.20;69.70;;;;;;5071516;28;20340;-73
2024/03/26 06:44:52;;;;;;;3.00;1.30;;;12.30;70.30;;;;;;5053060;28;20020;-72
2024/03/26 06:47:17;;;;;;;;;;;12.50;69.30;;;;;;5071726;28;20397;-73
2024/03/26 06:49:43;;;;;;;3.17;1.30;;;12.60;67.90;;;;;;5071442;28;20443;-72
2024/03/26 06:52:08;;;;;;;;;;;12.80;67.40;;;;;;5053512;28;20028;-74
2024/03/26 06:54:34;;;;;;;4.13;1.90;;;12.90;67.30;;;;;;5070838;28;20394;-73
2024/03/26 06:56:59;;;;;;;;;;;13.20;65.20;;;;;;5053619;28;20024;-72
2024/03/26 06:59:25;;;;;;;3.03;1.40;;;13.20;63.90;;;;;;5070724;28;19999;-73
2024/03/26 07:01:51;;;;;;;4.63;2.25;;;13.10;63.70;;;;;;5053037;28;20511;-73
2024/03/26 07:04:16;;;;;;;;;;;13.10;63.40;;;;;;5071456;28;20496;-72
2024/03/26 07:06:43;;;;;;;2.95;1.40;;;13.20;62.90;;;;;;5070907;28;20373;-73
2024/03/26 07:09:09;;;;;;;5.38;1.67;;;13.40;63.40;;;;;;5052770;28;20029;-74
2024/03/26 07:11:34;;;;;;;;;;;13.70;61.00;;;;;;5071563;28;20108;-74
2024/03/26 07:14:00;;;;;;;3.78;1.50;;;14.10;59.00;;;;;;5052811;28;19913;-73
2024/03/26 07:16:26;;;;;;;;;;;14.00;58.80;;;;;;5070868;28;20552;-74
2024/03/26 07:18:52;;;;;;;4.68;1.90;;;14.20;56.90;;;;;;5069828;28;19982;-73
2024/03/26 07:21:17;;;;;;;4.18;1.92;;;14.40;56.40;;;;;;5069703;28;20109;-74
2024/03/26 07:23:44;;;;;;;4.15;1.92;;;14.40;56.80;;;;;;5070578;28;20021;-72
2024/03/26 07:26:10;;;;;;;9.15;2.65;;;14.80;55.90;;;;;;5070266;28;20028;-74
2024/03/26 07:28:35;;;;;;;;;;;15.00;54.30;;;;;;5053009;28;20028;-74
2024/03/26 07:31:01;;;;;;;6.13;2.05;;;15.00;53.60;;;;;;5070494;28;19912;-72
2024/03/26 07:33:27;;;;;;;5.55;2.28;;;15.10;52.50;;;;;;5070349;28;20043;-72
2024/03/26 07:35:53;;;;;;;5.97;2.05;;;15.20;53.50;;;;;;5070350;28;20025;-73
2024/03/26 07:38:19;;;;;;;7.05;1.92;;;15.60;53.30;;;;;;5070087;28;20060;-74
2024/03/26 07:40:44;;;;;;;5.10;2.33;;;16.10;50.70;;;;;;5051833;28;20035;-74
2024/03/26 07:43:10;;;;;;;3.55;1.75;;;16.30;49.10;;;;;;5052252;28;20115;-73
2024/03/26 07:45:37;;;;;;;4.95;2.08;;;16.10;49.40;;;;;;5070134;28;20064;-74
2024/03/26 07:48:03;;;;;;;6.55;3.47;;;16.20;48.40;;;;;;5052104;28;20044;-72
2024/03/26 07:50:29;;;;;;;8.00;3.33;;;16.20;48.50;;;;;;5069930;28;20036;-74
2024/03/26 07:52:54;;;;;;;7.72;2.90;;;16.40;48.20;;;;;;5069944;28;20116;-74
2024/03/26 07:55:20;;;;;;;5.78;2.10;;;16.60;47.10;;;;;;5069709;28;20186;-73
2024/03/26 07:57:46;;;;;;;;;;;16.40;47.60;;;;;;5052439;28;20032;-74
2024/03/26 08:00:12;;;;;;;5.53;2.10;;;16.60;46.60;;;;;;5069774;28;20010;-73
2024/03/26 08:02:38;;;;;;;7.90;3.10;;;16.90;46.30;;;;;;5051871;28;20489;-74
2024/03/26 08:05:05;;;;;;;6.90;2.50;;;17.10;45.10;;;;;;5051735;28;20119;-74
2024/03/26 08:07:31;;;;;;;6.20;2.17;;;17.30;44.40;;;;;;5069796;28;20016;-73
2024/03/26 08:09:57;;;;;;;7.65;2.45;;;17.50;43.10;;;;;;5051165;28;20056;-74
2024/03/26 08:12:23;;;;;;;8.35;2.20;;;17.90;42.30;;;;;;5051942;28;20025;-74
2024/03/26 08:14:49;;;;;;;;;;;18.00;42.50;;;;;;5052057;28;20036;-73
2024/03/26 08:17:14;;;;;;;5.17;2.30;;;18.20;41.70;;;;;;5069668;28;19912;-74
2024/03/26 08:19:40;;;;;;;9.93;2.60;;;18.30;41.80;;;;;;5051944;28;20559;-75
2024/03/26 08:22:06;;;;;;;6.57;2.42;;;18.20;41.50;;;;;;5051516;28;20025;-73
2024/03/26 08:24:33;;;;;;;4.78;2.42;;;18.00;41.20;;;;;;5051489;28;20064;-74
2024/03/26 08:26:58;;;;;;;5.75;2.90;;;18.00;42.10;;;;;;5051544;28;20024;-74
2024/03/26 08:29:24;;;;;;;6.35;3.78;;;18.20;42.20;;;;;;5069497;28;20085;-73
2024/03/26 08:31:50;;;;;;;7.55;4.07;;;18.30;41.30;;;;;;5069559;28;20112;-74
2024/03/26 08:34:15;;;;;;;9.30;5.05;;;18.50;40.40;;;;;;5051695;28;20028;-74
2024/03/26 08:36:41;;;;;;;21.17;10.07;;;18.10;41.30;;;;;;5051259;28;20028;-74
2024/03/26 08:39:09;;;;;;;6.50;2.55;;;18.00;41.90;;;;;;5069267;28;20439;-73
2024/03/26 08:41:36;;;;;;;9.27;2.85;;;17.90;42.30;;;;;;5069416;28;20023;-74
2024/03/26 08:44:03;;;;;;;3.83;1.98;;;17.80;41.60;;;;;;5051316;28;20485;-74
2024/03/26 08:46:30;;;;;;;4.80;2.65;;;17.50;40.70;;;;;;5051432;28;20555;-74
2024/03/26 08:48:56;;;;;;;5.63;2.40;;;17.30;42.50;;;;;;5069286;28;20107;-74
2024/03/26 08:51:27;;;;;;;4.00;1.98;;;17.20;43.10;;;;;;5051380;28;20147;-74
2024/03/26 08:53:54;;;;;;;5.05;2.30;;;17.40;42.10;;;;;;5051162;28;20607;-72
2024/03/26 08:56:20;;;;;;;5.55;2.40;;;16.90;42.30;;;;;;5069308;28;20024;-74
2024/03/26 08:58:48;;;;;;;3.20;1.58;;;16.90;43.90;;;;;;5051012;28;20580;-73
2024/03/26 09:01:14;;;;;;;2.67;1.55;;;16.80;42.10;;;;;;5069160;28;20062;-73
2024/03/26 09:03:40;;;;;;;4.78;1.52;;;16.90;41.60;;;;;;5069427;28;20055;-76
2024/03/26 09:06:06;;;;;;;5.50;2.10;;;17.10;40.30;;;;;;5069226;28;20509;-74
2024/03/26 09:08:33;;;;;;;7.32;1.73;;;17.10;41.30;;;;;;5068954;28;20264;-75
2024/03/26 09:10:59;;;;;;;5.45;2.20;;;17.10;40.40;;;;;;5050986;28;20032;-74
2024/03/26 09:13:25;;;;;;;3.75;2.15;;;17.00;41.30;;;;;;5051102;28;20062;-73
2024/03/26 09:15:51;;;;;;;5.97;2.60;;;16.80;43.00;;;;;;5069113;28;20029;-74
2024/03/26 09:18:17;;;;;;;3.70;2.28;;;16.60;41.30;;;;;;5050978;28;20843;-75
2024/03/26 09:20:42;;;;;;;3.80;1.80;;;16.80;41.00;;;;;;5068923;28;20032;-74
2024/03/26 09:23:08;;;;;;;5.93;2.42;;;16.80;40.00;;;;;;5072461;28;20063;-75
2024/03/26 09:25:34;;;;;;;5.70;2.03;;;16.80;41.50;;;;;;5054846;28;20029;-75
2024/03/26 09:28:00;;;;;;;4.57;2.15;;;17.00;42.00;;;;;;5054607;28;20033;-71
2024/03/26 09:30:27;;;;;;;4.70;2.55;;;17.20;41.60;;;;;;5054760;28;20074;-75
2024/03/26 09:32:56;;;;;;;6.00;2.83;;;17.30;42.20;;;;;;5072588;28;20538;-73
2024/03/26 09:35:22;;;;;;;4.35;3.03;;;17.10;43.20;;;;;;5072613;28;20024;-74
2024/03/26 09:37:48;;;;;;;6.75;3.38;;;17.10;42.60;;;;;;5054469;28;20504;-74
2024/03/26 09:40:14;;;;;;;4.53;2.75;;;17.20;42.30;;;;;;5072429;28;20081;-74
2024/03/26 09:42:43;;;;;;;7.50;3.35;;;17.10;43.50;;;;;;5072338;28;20059;-74
2024/03/26 09:45:19;;;;;;;3.67;2.90;;;17.80;42.20;;;;;;5054363;28;20032;-74
2024/03/26 09:47:48;;;;;;;5.43;3.03;;;17.30;43.10;;;;;;5072056;28;20028;-75
2024/03/26 09:50:14;;;;;;;9.55;3.45;;;17.30;43.60;;;;;;5054385;28;20033;-74
2024/03/26 09:52:45;;;;;;;5.53;2.90;;;17.40;43.40;;;;;;5054192;28;20485;-74
2024/03/26 09:55:13;;;;;;;8.05;3.10;;;17.60;43.20;;;;;;5054095;28;20119;-73
2024/03/26 09:57:38;;;;;;;5.03;2.95;;;18.00;41.40;;;;;;5054153;28;20020;-74
2024/03/26 10:00:06;;;;;;;4.07;2.65;;;17.70;41.90;;;;;;5054084;28;20044;-75
2024/03/26 10:02:31;;;;;;;7.07;4.18;;;17.50;43.00;;;;;;5072256;28;20016;-74
2024/03/26 10:04:57;;;;;;;5.07;3.35;;;18.00;42.90;;;;;;5072560;28;20111;-74
2024/03/26 10:07:23;;;;;;;5.60;2.80;;;17.90;43.60;;;;;;5071941;28;20028;-73
2024/03/26 10:09:49;;;;;;;5.00;2.80;;;17.90;42.60;;;;;;5072022;28;20550;-73
2024/03/26 10:12:14;;;;;;;4.30;2.85;;;17.60;42.40;;;;;;5072085;28;20115;-74
2024/03/26 10:14:40;;;;;;;5.22;2.83;;;17.50;41.70;;;;;;5053872;28;20512;-74
2024/03/26 10:17:07;;;;;;;4.95;2.75;;;17.90;41.30;;;;;;5053908;28;20032;-73
2024/03/26 10:19:33;;;;;;;4.63;2.60;;;18.00;40.50;;;;;;5071578;28;20539;-73
2024/03/26 10:21:58;;;;;;;3.65;1.73;;;18.30;38.60;;;;;;5053651;28;20548;-73
2024/03/26 10:24:24;;;;;;;3.70;2.05;;;18.50;38.60;;;;;;5053673;28;20047;-73
2024/03/26 10:26:51;;;;;;;5.25;2.13;;;18.80;36.50;;;;;;5053654;28;20125;-74
2024/03/26 10:29:17;;;;;;;3.47;1.55;;;19.30;35.90;;;;;;5071458;28;20052;-73
2024/03/26 10:31:44;;;;;;;1.50;0.98;;;19.30;35.30;;;;;;5071345;28;20506;-74
2024/03/26 10:34:10;;;;;;;4.95;1.27;;;19.50;33.10;;;;;;5053464;28;20488;-74
2024/03/26 10:36:37;;;;;;;2.33;1.10;;;19.40;32.60;;;;;;5053343;28;20046;-75
2024/03/26 10:39:03;;;;;;;5.25;1.80;;;19.20;32.90;;;;;;5071158;28;20048;-73
2024/03/26 10:41:35;;;;;;;2.15;1.10;;;18.90;32.70;;;;;;5053388;28;20028;-73
2024/03/26 10:44:02;;;;;;;2.53;1.15;;;18.40;33.90;;;;;;5071226;28;20032;-74
2024/03/26 10:46:31;;;;;;;1.70;0.80;;;18.00;34.50;;;;;;5071358;28;20035;-72
2024/03/26 10:49:05;;;;;;;2.38;1.00;;;17.70;33.90;;;;;;5053211;28;20056;-73
2024/03/26 10:51:32;;;;;;;1.80;0.75;;;17.50;33.90;;;;;;5053146;28;20031;-74
2024/03/26 10:54:01;;;;;;;3.15;0.90;;;17.40;34.80;;;;;;5053024;28;20056;-74
2024/03/26 10:56:32;;;;;;;4.07;1.10;;;17.20;35.30;;;;;;5053248;28;20508;-74
2024/03/26 10:58:58;;;;;;;1.23;0.60;;;17.20;36.50;;;;;;5071109;28;20036;-74
2024/03/26 11:01:26;;;;;;;2.67;1.08;;;17.20;35.00;;;;;;5052988;28;20045;-74
2024/03/26 11:03:52;;;;;;;2.63;1.10;;;16.90;34.10;;;;;;5052895;28;20024;-74
2024/03/26 11:06:21;;;;;;;3.13;0.85;;;16.50;35.30;;;;;;5053293;28;20024;-74
2024/03/26 11:08:56;;;;;;;1.80;0.90;;;16.10;37.30;;;;;;5052720;28;20039;-75
2024/03/26 11:11:22;;;;;;;5.47;1.23;;;15.80;37.90;;;;;;5070796;28;20024;-74
2024/03/26 11:13:56;;;;;;;4.25;0.70;;;15.50;38.30;;;;;;5052855;28;20074;-74
2024/03/26 11:16:40;;;;;;;4.72;1.10;;;15.40;39.60;;;;;;5052727;28;20024;-75
2024/03/26 11:19:20;;;;;;;4.40;1.08;;;15.40;39.50;;;;;;5052442;28;20081;-74
2024/03/26 11:21:50;;;;;;;1.95;1.00;;;15.40;38.80;;;;;;5052669;28;20025;-74
2024/03/26 11:24:35;;;;;;;2.50;0.90;;;15.40;40.10;;;;;;5052558;28;20047;-74
2024/03/26 11:27:03;;;;;;;2.45;0.93;;;15.50;39.30;;;;;;5070593;28;20039;-74
2024/03/26 11:29:29;;;;;;;3.33;1.02;;;15.60;39.60;;;;;;5052203;28;20024;-73
2024/03/26 11:31:55;;;;;;;1.77;0.80;;;15.60;39.10;;;;;;5070360;28;20028;-74
2024/03/26 11:34:23;;;;;;;4.45;0.70;;;15.50;38.90;;;;;;5070431;28;20052;-73
2024/03/26 11:36:52;;;;;;;2.03;0.73;;;15.50;39.40;;;;;;5070368;28;20034;-74
2024/03/26 11:39:21;;;;;;;1.63;0.73;;;15.60;39.10;;;;;;5069966;28;20048;-74
2024/03/26 11:41:47;;;;;;;3.47;0.70;;;15.70;37.40;;;;;;5052677;28;20104;-74
2024/03/26 11:44:12;;;;;;;2.70;0.88;;;15.70;37.90;;;;;;5051557;28;20533;-73
2024/03/26 11:46:38;;;;;;;5.38;1.48;;;15.70;37.70;;;;;;5052264;28;20119;-74
2024/03/26 11:49:04;;;;;;;5.63;2.08;;;15.60;38.90;;;;;;5070216;28;20035;-73
2024/03/26 11:51:30;;;;;;;;;;;15.70;39.10;;;;;;5052588;28;20405;-73
2024/03/26 11:53:56;;;;;;;2.70;1.23;;;15.90;38.80;;;;;;5070397;28;19912;-73
2024/03/26 11:56:23;;;;;;;4.75;1.25;;;16.00;37.80;;;;;;5052069;28;20025;-74
2024/03/26 11:58:50;;;;;;;2.47;0.82;;;16.00;37.00;;;;;;5069612;28;20090;-75
2024/03/26 12:01:20;;;;;;;4.15;0.85;;;16.20;37.60;;;;;;5069825;28;20520;-74
2024/03/26 12:04:00;;;;;;;2.35;0.77;;;16.30;36.20;;;;;;5051824;28;20463;-75
2024/03/26 12:06:28;;;;;;;2.70;1.05;;;16.30;36.00;;;;;;5069782;28;20024;-73
2024/03/26 12:08:56;;;;;;;3.67;0.68;;;16.10;34.40;;;;;;5051644;28;20208;-74
2024/03/26 12:11:23;;;;;;;2.97;0.65;;;16.00;35.80;;;;;;5051722;28;20113;-74
2024/03/26 12:13:50;;;;;;;1.70;0.68;;;15.90;36.80;;;;;;5069718;28;20173;-74
2024/03/26 12:16:27;;;;;;;3.45;0.80;;;15.90;35.10;;;;;;5069665;28;20385;-73
2024/03/26 12:18:56;;;;;;;2.40;0.65;;;15.90;35.10;;;;;;5051656;28;20040;-74
2024/03/26 12:21:24;;;;;;;1.65;0.73;;;15.70;35.50;;;;;;5051605;28;20558;-74
2024/03/26 12:23:51;;;;;;;2.10;0.65;;;15.80;36.20;;;;;;5051618;28;20024;-74
2024/03/26 12:26:17;;;;;;;1.95;0.60;;;15.70;35.50;;;;;;5069481;28;20028;-74
2024/03/26 12:28:42;;;;;;;2.28;0.70;;;15.70;36.10;;;;;;5069505;28;20043;-74
2024/03/26 12:31:09;;;;;;;4.57;0.73;;;15.70;35.90;;;;;;5051407;28;20052;-74
2024/03/26 12:33:35;;;;;;;2.72;0.80;;;15.70;35.90;;;;;;5051611;28;20117;-73
2024/03/26 12:36:04;;;;;;;1.42;0.47;;;15.80;34.90;;;;;;5051429;28;20505;-74
2024/03/26 12:38:33;;;;;;;1.63;0.40;;;15.80;34.70;;;;;;5069174;28;20045;-74
2024/03/26 12:40:59;;;;;;;3.10;0.52;;;15.70;34.30;;;;;;5069418;28;20509;-73
2024/03/26 12:43:24;;;;;;;3.58;0.60;;;15.80;34.40;;;;;;5051334;28;20033;-74
2024/03/26 12:45:50;;;;;;;2.72;1.17;;;15.80;33.70;;;;;;5051399;28;20035;-74
2024/03/26 12:48:16;;;;;;;1.60;0.68;;;15.70;33.20;;;;;;5051412;28;20548;-74
2024/03/26 12:50:42;;;;;;;1.45;0.45;;;15.60;33.30;;;;;;5051137;28;20033;-74
2024/03/26 12:53:07;;;;;;;2.88;0.60;;;15.50;33.90;;;;;;5069324;28;20051;-75
2024/03/26 12:55:33;;;;;;;2.88;0.60;;;15.50;33.50;;;;;;5071145;28;20326;-73
2024/03/26 12:57:59;;;;;;;1.38;0.40;;;15.30;32.50;;;;;;5073160;28;20024;-75
2024/03/26 13:00:25;;;;;;;;;;;15.20;33.00;;;;;;5073647;28;20043;-74
2024/03/26 13:02:50;;;;;;;1.60;0.50;;;15.10;33.80;;;;;;5073212;28;19910;-73
2024/03/26 13:05:16;;;;;;;;;;;15.20;32.90;;;;;;5055599;28;20085;-74